Flight Track Log - Related Links

Times and Time Zones

All times are in EST time to prevent confusion due to time zone crossing. See the PDT4226 flight status page for this flight to view local times or setup timezone preferences in your user account.

Time Position Orientation Groundspeed Altitude Reporting Facility
EST Latitude Longitude Course Direction KTS MPH feet Rate Location/Type
Tue 11:55:47 AM 39.9000 -75.2333 311° West 129 148 700  Level Philadelphia TRACON
Tue 11:56:17 AM 39.9000 -75.2667 270° West 128 147 1,600 1,400 Climbing Philadelphia TRACON
Tue 11:57:17 AM 39.9167 -75.3000 303° West 141 162 2,800 1,200 Climbing Philadelphia TRACON
Tue 11:58:00 AM 40.0477 -75.3978 323° Northwest  Level FlightAware Approximate
Tue 11:58:17 AM 39.9500 -75.3333 323° Northwest 135 155 4,000  Level Philadelphia TRACON
Tue 11:59:00 AM 40.1085 -75.4503 303° West  Level FlightAware Approximate
Tue 12:00:00 PM 40.1676 -75.5014 311° West  Level FlightAware Approximate
Tue 12:00:19 PM 40.0103 -75.3944 322° Northwest 144 166 6,200  Level New York Center
Tue 12:01:00 PM 40.2227 -75.5590 311° West  Level FlightAware Approximate
Tue 12:01:19 PM 40.0431 -75.4103 340° North 137 158 7,200  Level New York Center
Tue 12:02:19 PM 40.0794 -75.4397 328° Northwest 137 158 8,300 1,100 Climbing New York Center
Tue 12:03:19 PM 40.1097 -75.4689 324° Northwest 142 163 9,400 1,050 Climbing New York Center
Tue 12:04:19 PM 40.1458 -75.4986 328° Northwest 147 169 10,400 950 Climbing New York Center
Tue 12:05:19 PM 40.1803 -75.5225 332° Northwest 147 169 11,300 800 Climbing New York Center
Tue 12:06:19 PM 40.2211 -75.5472 335° Northwest 147 169 12,000 350 Climbing New York Center
Tue 12:07:19 PM 40.2483 -75.5981 305° West 152 175 12,000  Level New York Center
Tue 12:08:19 PM 40.2692 -75.6456 300° West 152 175 12,000 50 Level New York Center
Tue 12:09:19 PM 40.3028 -75.6889 315° West 164 189 12,100 500 Climbing New York Center
Tue 12:10:19 PM 40.3325 -75.7292 314° West 170 196 13,000 950 Climbing New York Center
Tue 12:11:19 PM 40.3644 -75.7614 322° Northwest 164 189 14,000 500 Climbing New York Center
Tue 12:12:19 PM 40.4194 -75.7897 339° North 169 194 14,000  Level New York Center
Tue 12:13:19 PM 40.4744 -75.8183 338° Northwest 200 230 14,000  Level New York Center
Tue 12:14:19 PM 40.5294 -75.8469 338° Northwest 210 242 14,000  Level New York Center
Tue 12:15:19 PM 40.5611 -75.8903 314° West 190 219 14,000  Level New York Center
Tue 12:16:19 PM 40.6025 -75.9453 315° West 185 213 14,000  Level New York Center
Tue 12:17:19 PM 40.6425 -75.9786 328° Northwest 185 213 14,000  Level New York Center
Tue 12:18:19 PM 40.7103 -76.0000 347° North 211 243 14,000 -50 Level New York Center
Tue 12:19:19 PM 40.7675 -76.0264 341° North 221 254 13,900 -50 Descending New York Center
Tue 12:20:19 PM 40.8250 -76.0500 343° North 221 254 13,900  Level New York Center
Tue 12:21:19 PM 40.8758 -76.0731 341° North 221 254 13,900  Level New York Center
Tue 12:22:19 PM 40.9333 -76.0942 344° North 221 254 13,900 50 Level New York Center
Tue 12:23:19 PM 40.9969 -76.1183 344° North 216 249 14,000 50 Climbing New York Center
Tue 12:24:19 PM 41.0522 -76.1392 344° North 210 242 14,000  Level New York Center
Tue 12:25:19 PM 41.1072 -76.1628 342° North 210 242 14,000  Level New York Center
Tue 12:26:19 PM 41.1608 -76.1781 348° North 205 236 14,000  Level New York Center
Tue 12:27:19 PM 41.2181 -76.2019 343° North 205 236 14,000 -350 Level New York Center
Tue 12:28:19 PM 41.2867 -76.2075 357° North 217 250 13,300 -800 Descending New York Center
Tue 12:29:19 PM 41.3533 -76.2047 North 232 267 12,400 -950 Descending New York Center
Tue 12:30:19 PM 41.4181 -76.1989 North 239 275 11,400 -1,000 Descending New York Center
Tue 12:31:19 PM 41.4750 -76.1867 North 234 269 10,400 -1,000 Descending New York Center
Tue 12:32:19 PM 41.5372 -76.1889 358° North 229 264 9,400 -650 Descending New York Center
Tue 12:33:19 PM 41.6036 -76.1944 356° North 217 250 9,100 -200 Descending New York Center
Tue 12:34:19 PM 41.6600 -76.1933 North 212 244 9,000 -50 Descending New York Center
Tue 12:35:19 PM 41.7189 -76.1817 North 212 244 9,000 -350 Level New York Center
Tue 12:36:19 PM 41.7644 -76.1408 34° Northeast 212 244 8,300 -900 Descending New York Center
Tue 12:37:19 PM 41.8183 -76.1006 29° Northeast 217 250 7,200 -1,100 Descending New York Center
Tue 12:38:19 PM 41.8706 -76.0489 36° Northeast 217 250 6,100 -1,050 Descending New York Center
Tue 12:39:19 PM 41.9183 -76.0083 32° Northeast 212 244 5,100 -550 Descending New York Center
Tue 12:40:19 PM 41.9678 -75.9703 30° Northeast 205 236 5,000 -100 Descending New York Center
Tue 12:41:19 PM 42.0086 -75.9400 29° Northeast 191 220 4,900 -100 Descending New York Center
Tue 12:42:19 PM 42.0619 -75.9106 22° Northeast 180 207 4,800 -250 Descending New York Center
Tue 12:43:19 PM 42.1122 -75.9033 North 175 201 4,400 -450 Descending New York Center
Tue 12:44:19 PM 42.1578 -75.9069 357° North 163 188 3,900 -500 Descending New York Center

Login

Don't have an account? Register now (free) for customized features, flight alerts, and more!